ADDS METAR Data INFO
IDs: Format: Raw Decoded Include TAF

Data at: 0308 UTC 16 Aug 2018

PAIW 160256Z AUTO 20018KT 10SM OVC095 09/06 A2995 RMK AO2 SLP143 T00890056 56009
PAIW 160156Z AUTO 19016KT 10SM CLR 09/05 A2995 RMK AO2 SLP144 T00890050
PAIW 160056Z AUTO 20017KT 10SM BKN120 09/04 A2996 RMK AO2 SLP147 T00940039
PAIW 152356Z AUTO 20014KT 10SM CLR 09/02 A2998 RMK AO2 SLP153 T00890017 10089 20078 58007
PAIW 152256Z AUTO 20012KT 10SM FEW070 BKN110 08/06 A2999 RMK AO2 SLP156 T00830061
PAIW 152156Z AUTO 20012KT 10SM OVC070 08/06 A3000 RMK AO2 SLP160 T00780061
PAIW 151856Z AUTO 24005KT 10SM SCT120 08/05 A3000 RMK AO2 SLP161 T00780050
PAIW 151756Z AUTO 22003KT 10SM CLR 08/06 A3001 RMK AO2 SLP163 T00780056 10078 20050 53001
PAIW 151656Z AUTO 00000KT 10SM FEW012 07/05 A3001 RMK AO2 SLP163 T00670050
PAIW 151556Z AUTO 05004KT 10SM CLR 06/04 A3000 RMK AO2 SLP160 T00560039
PAIW 151505Z AUTO 03006KT 10SM FEW015 06/04 A3001 RMK AO2
PAIW 151456Z AUTO 03008KT 10SM BKN015 06/04 A3001 RMK AO2 SLP162 T00610039 58008
PAIW 151356Z AUTO 02007KT 10SM OVC017 07/04 A3002 RMK AO2 SLP166 T00720044
PAIW 151256Z AUTO 01006KT 10SM OVC019 07/04 A3002 RMK AO2 SLP167 T00720044
PAIW 151156Z AUTO 03007KT 10SM OVC019 07/04 A3003 RMK AO2 SLP170 T00720044 10078 20072 51003
PAIW 151056Z AUTO 01009KT 10SM OVC019 07/04 A3003 RMK AO2 SLP169 T00720044
PAIW 150956Z AUTO 01013KT 10SM OVC019 07/04 A3002 RMK AO2 SLP169 T00720044
PAIW 150856Z AUTO 03016KT 10SM OVC021 07/04 A3002 RMK AO2 SLP167 T00720039 400890067 53009
PAIW 150756Z AUTO 02017KT 10SM OVC023 07/04 A3001 RMK AO2 PK WND 01026/0720 SLP164 T00720044
PAIW 150656Z AUTO 02022G25KT 10SM BKN023 08/04 A2999 RMK AO2 PK WND 02028/0600 SLP159 T00780039
PAIW 150556Z AUTO 02020G28KT 10SM BKN023 08/04 A2999 RMK AO2 PK WND 01029/0533 SLP157 T00780039 10089 20078 50001
PAIW 150456Z AUTO 01022G28KT 10SM BKN025 08/03 A2999 RMK AO2 PK WND 01029/0428 SLP158 T00780033
PAIW 150356Z AUTO 03020G26KT 10SM BKN023 OVC030 08/04 A3000 RMK AO2 PK WND 02030/0314 SLP159 T00830039
PAIW 150256Z AUTO 02023G31KT 10SM OVC025 08/03 A2999 RMK AO2 PK WND 02033/0157 SLP157 T00830033 53001
PAIW 150156Z AUTO 03025G33KT 10SM OVC025 08/03 A2998 RMK AO2 PK WND 03034/0119 SLP154 T00780028
PAIW 150056Z AUTO 01027G30KT 10SM BKN027 OVC031 08/03 A2998 RMK AO2 PK WND 02032/0052 SLP155 T00780028
PAIW 150034Z AUTO 02022G32KT 10SM BKN028 OVC033 08/02 A2999 RMK AO2 PK WND 02032/0026
PAIW 150003Z AUTO 02024G32KT 10SM OVC030 08/02 A2999 RMK AO2 PK WND 02032/0000
PAIW 142356Z AUTO 02027G34KT 10SM BKN028 OVC033 08/02 A2999 RMK AO2 PK WND 02034/2347 SLP155 T00830022 10089 20072 53004
PAIW 142314Z AUTO 02023G32KT 10SM BKN028 BKN035 08/03 A2999 RMK AO2 PK WND 01032/2305
PAIW 142256Z AUTO 02027G35KT 10SM SCT028 BKN035 08/02 A2998 RMK AO2 PK WND 02035/2256 SLP155 T00830022
PAIW 142237Z AUTO 02028G34KT 10SM FEW028 BKN033 08/02 A2998 RMK AO2 PK WND 01034/2231
PAIW 142203Z AUTO 01026G32KT 10SM BKN028 08/02 A2997 RMK AO2 PK WND 01031/2202
PAIW 142156Z AUTO 02025G33KT 10SM SCT026 BKN033 08/03 A2997 RMK AO2 PK WND 02033/2149 SLP152 T00830028
PAIW 142152Z AUTO 01028G33KT 10SM SCT026 08/02 A2997 RMK AO2 PK WND 02033/2149
PAIW 142056Z AUTO 01024G31KT 10SM BKN028 08/02 A2997 RMK AO2 PK WND 02034/2020 SLP150 T00780022 51009
PAIW 142026Z AUTO 02024G34KT 10SM BKN028 08/02 A2997 RMK AO2 PK WND 02034/2020
PAIW 141956Z AUTO 01024G33KT 10SM SCT028 08/02 A2996 RMK AO2 PK WND 02033/1947 SLP148 T00780017
PAIW 141948Z AUTO 02027G33KT 10SM SCT028 08/02 A2996 RMK AO2 PK WND 02033/1947
PAIW 141920Z AUTO 02026G33KT 10SM BKN028 OVC033 08/02 A2996 RMK AO2 PK WND 02033/1920
PAIW 141903Z AUTO 02025G32KT 10SM OVC031 08/02 A2995 RMK AO2 PK WND 02032/1902
PAIW 141856Z AUTO 02024G33KT 10SM BKN028 OVC033 07/02 A2995 RMK AO2 PK WND 02034/1844 SLP145 T00720022
PAIW 141843Z AUTO 02026G32KT 10SM OVC030 07/03 A2995 RMK AO2 PK WND 02033/1829
PAIW 141829Z AUTO 02025G33KT 10SM OVC028 07/02 A2995 RMK AO2 PK WND 02033/1829
PAIW 141819Z AUTO 02027G32KT 10SM OVC030 07/02 A2995 RMK AO2 PK WND 02032/1819
PAIW 141756Z AUTO 02027G32KT 10SM BKN027 OVC034 07/02 A2994 RMK AO2 PK WND 02032/1752 SLP142 T00720017 10072 20067 53006
PAIW 141656Z AUTO 03022G29KT 10SM BKN024 OVC030 07/03 A2994 RMK AO2 PK WND 03035/1632 SLP139 T00670028
PAIW 141556Z AUTO 01025G30KT 10SM OVC024 07/03 A2993 RMK AO2 PK WND 02033/1529 SLP137 T00670028